Time;durP1;ratioP1;P1;durP2;ratioP2;P2;SDS_P1;SDS_P2;PMS_P1;PMS_P2;Temp;Humidity;BMP_temperature;BMP_pressure;BME280_temperature;BME280_humidity;BME280_pressure;Samples;Min_cycle;Max_cycle;Signal;HPM_P1;HPM_P2
2022/10/01 00:02:08;;;;;;;4.20;2.87;;;12.90;1.00;;;;;;5044248;28;20200;-64
2022/10/01 00:04:36;;;;;;;4.10;2.87;;;12.90;1.00;;;;;;5025495;28;20192;-62
2022/10/01 00:07:08;;;;;;;4.27;2.53;;;12.90;1.00;;;;;;5027059;28;20200;-64
2022/10/01 00:09:35;;;;;;;2.67;2.47;;;12.90;1.00;;;;;;5025119;28;20205;-65
2022/10/01 00:12:02;;;;;;;3.00;2.60;;;12.90;1.00;;;;;;5023231;28;20266;-64
2022/10/01 00:14:29;;;;;;;4.10;2.90;;;12.80;1.00;;;;;;5022547;28;20238;-64
2022/10/01 00:16:56;;;;;;;3.37;2.73;;;12.80;1.00;;;;;;5039961;28;20210;-65
2022/10/01 00:19:23;;;;;;;5.23;2.70;;;12.80;1.00;;;;;;5022262;28;20228;-64
2022/10/01 00:21:50;;;;;;;3.77;2.50;;;12.80;1.00;;;;;;5048409;28;20192;-63
2022/10/01 00:24:17;;;;;;;5.77;2.63;;;12.80;1.00;;;;;;5022964;28;20196;-63
2022/10/01 00:26:44;;;;;;;5.17;3.10;;;12.80;1.00;;;;;;5023551;28;20238;-63
2022/10/01 00:29:13;;;;;;;3.60;2.73;;;12.80;1.00;;;;;;5043888;28;20208;-65
2022/10/01 00:31:41;;;;;;;3.20;2.90;;;12.70;1.00;;;;;;5041241;28;20200;-65
2022/10/01 00:34:11;;;;;;;5.53;2.80;;;12.80;1.00;;;;;;5033156;28;20192;-65
2022/10/01 00:36:38;;;;;;;2.90;2.70;;;12.70;1.00;;;;;;5055078;28;20303;-63
2022/10/01 00:39:05;;;;;;;6.20;2.73;;;12.80;1.00;;;;;;5008914;28;20200;-63
2022/10/01 00:41:33;;;;;;;4.93;3.70;;;12.70;1.00;;;;;;5040208;28;20227;-65
2022/10/01 00:44:34;;;;;;;4.27;2.77;;;12.70;1.00;;;;;;5023759;28;20558;-64
2022/10/01 00:47:19;;;;;;;5.13;2.67;;;12.70;1.00;;;;;;5040290;28;20204;-65
2022/10/01 00:49:49;;;;;;;5.30;2.90;;;12.70;1.00;;;;;;5053397;28;20199;-63
2022/10/01 00:52:24;;;;;;;4.43;2.60;;;12.60;1.00;;;;;;5041306;28;20226;-64
2022/10/01 00:54:56;;;;;;;5.73;3.17;;;12.70;1.00;;;;;;5024097;28;20215;-65
2022/10/01 00:57:25;;;;;;;6.53;2.90;;;12.70;1.00;;;;;;5039062;28;20425;-65
2022/10/01 00:59:55;;;;;;;4.33;2.93;;;12.70;1.00;;;;;;5024722;28;20282;-64
2022/10/01 01:02:22;;;;;;;3.30;2.90;;;12.80;1.00;;;;;;5022460;28;20230;-63
2022/10/01 01:04:49;;;;;;;5.33;2.80;;;12.70;1.00;;;;;;5029458;28;20192;-64
2022/10/01 01:07:17;;;;;;;3.20;2.90;;;12.70;1.00;;;;;;5056147;28;20223;-64
2022/10/01 01:09:49;;;;;;;3.73;2.83;;;12.90;1.00;;;;;;5022261;28;20287;-65
2022/10/01 01:12:39;;;;;;;2.83;2.57;;;12.90;1.00;;;;;;5039774;28;20212;-64
2022/10/01 01:15:27;;;;;;;4.77;2.87;;;12.90;1.00;;;;;;5028575;28;20357;-63
2022/10/01 01:18:08;;;;;;;5.43;2.80;;;12.90;1.00;;;;;;5022086;28;20207;-63
2022/10/01 01:20:44;;;;;;;4.10;2.80;;;12.90;1.00;;;;;;5028898;28;20191;-65
2022/10/01 01:23:14;;;;;;;5.60;3.00;;;13.00;1.00;;;;;;5038239;28;20287;-62
2022/10/01 01:25:53;;;;;;;5.33;3.00;;;13.10;1.00;;;;;;5040035;28;20246;-64
2022/10/01 01:28:33;;;;;;;5.57;3.10;;;13.10;1.00;;;;;;5040521;28;20282;-64
2022/10/01 01:31:08;;;;;;;3.00;2.57;;;13.10;1.00;;;;;;5024223;28;20274;-63
2022/10/01 01:33:38;;;;;;;4.97;2.73;;;13.00;1.00;;;;;;5055962;28;20210;-62
2022/10/01 01:36:18;;;;;;;4.73;2.80;;;13.00;1.00;;;;;;5038683;28;20727;-64
2022/10/01 01:38:50;;;;;;;5.57;2.87;;;13.10;1.00;;;;;;5005533;28;20604;-63
2022/10/01 01:41:19;;;;;;;5.00;2.60;;;13.10;1.00;;;;;;5038970;28;20279;-64
2022/10/01 01:43:50;;;;;;;3.80;2.60;;;13.10;1.00;;;;;;5029621;28;20193;-62
2022/10/01 01:46:18;;;;;;;7.73;2.60;;;13.10;1.00;;;;;;5022829;28;20786;-64
2022/10/01 01:48:49;;;;;;;4.50;2.80;;;13.00;1.00;;;;;;5038906;28;20659;-65
2022/10/01 01:51:31;;;;;;;6.70;3.23;;;12.80;1.00;;;;;;5005307;28;20239;-65
2022/10/01 01:53:59;;;;;;;3.37;2.83;;;12.70;1.00;;;;;;5038056;28;20275;-65
2022/10/01 01:56:26;;;;;;;3.43;2.63;;;12.60;1.00;;;;;;5039379;28;20208;-64
2022/10/01 01:58:53;;;;;;;5.00;3.10;;;12.60;1.00;;;;;;5039789;28;20278;-64
2022/10/01 02:01:38;;;;;;;5.17;3.30;;;12.50;1.00;;;;;;5020146;28;20731;-65
2022/10/01 02:04:18;;;;;;;4.63;3.30;;;12.30;1.00;;;;;;5019206;28;20200;-62
2022/10/01 02:07:19;;;;;;;3.30;3.00;;;12.20;1.00;;;;;;5038422;28;20210;-61
2022/10/01 02:10:08;;;;;;;9.13;3.23;;;12.00;1.00;;;;;;4989474;28;20294;-63
2022/10/01 02:12:41;;;;;;;3.73;3.27;;;11.80;99.90;;;;;;5037894;28;20244;-61
2022/10/01 02:15:35;;;;;;;5.40;3.50;;;11.70;99.90;;;;;;5038184;28;20351;-60
2022/10/01 02:18:22;;;;;;;4.27;3.33;;;11.60;99.90;;;;;;5036787;28;20239;-62
2022/10/01 02:20:55;;;;;;;6.23;3.70;;;11.50;99.90;;;;;;5016463;28;20188;-61
2022/10/01 02:23:28;;;;;;;5.30;3.67;;;11.40;99.90;;;;;;5037488;28;20188;-61
2022/10/01 02:26:00;;;;;;;5.83;3.47;;;11.20;1.00;;;;;;5037401;28;20220;-59
2022/10/01 02:28:31;;;;;;;4.63;3.67;;;11.20;1.00;;;;;;5019117;28;20286;-61
2022/10/01 02:31:00;;;;;;;3.70;3.40;;;11.10;1.00;;;;;;5037324;28;20196;-59
2022/10/01 02:33:34;;;;;;;3.73;3.40;;;11.20;1.00;;;;;;5039420;28;20196;-59
2022/10/01 02:36:05;;;;;;;4.13;3.43;;;11.10;1.00;;;;;;5021182;28;20222;-62
2022/10/01 02:38:35;;;;;;;5.23;3.77;;;11.10;1.00;;;;;;5037782;28;20195;-65
2022/10/01 02:41:06;;;;;;;6.77;3.80;;;11.00;1.00;;;;;;5036257;28;20915;-62
2022/10/01 02:43:38;;;;;;;4.07;3.67;;;11.00;1.00;;;;;;5032850;28;20642;-62
2022/10/01 02:46:20;;;;;;;4.67;3.80;;;10.90;99.90;;;;;;5051338;28;20226;-60
2022/10/01 02:48:48;;;;;;;4.40;3.73;;;10.80;99.90;;;;;;5020543;28;20207;-61
2022/10/01 02:51:36;;;;;;;5.63;3.70;;;10.80;99.90;;;;;;5051794;28;20200;-62
2022/10/01 02:54:21;;;;;;;4.33;3.37;;;10.80;99.90;;;;;;5036940;28;20258;-61
2022/10/01 02:59:34;;;;;;;4.70;3.57;;;10.80;1.00;;;;;;5037778;28;20192;-61
2022/10/01 03:02:01;;;;;;;4.13;3.50;;;10.70;74.50;;;;;;5036013;28;20747;-62
2022/10/01 03:04:28;;;;;;;4.80;3.43;;;10.70;1.00;;;;;;5020777;28;20227;-61
2022/10/01 03:07:02;;;;;;;6.00;3.70;;;10.80;99.90;;;;;;5037522;28;20199;-62
2022/10/01 03:09:33;;;;;;;7.47;3.80;;;10.70;1.00;;;;;;5035761;28;20199;-63
2022/10/01 03:12:00;;;;;;;5.07;4.10;;;10.70;1.00;;;;;;5020085;28;20211;-62
2022/10/01 03:14:28;;;;;;;6.07;3.53;;;10.60;1.00;;;;;;5053063;28;20249;-63
2022/10/01 03:16:55;;;;;;;4.40;4.00;;;10.60;1.00;;;;;;5037177;28;20261;-64
2022/10/01 03:19:22;;;;;;;5.10;3.57;;;10.60;16.20;;;;;;5037496;28;20207;-64
2022/10/01 03:21:48;;;;;;;5.27;4.13;;;10.60;1.00;;;;;;5020344;28;20192;-65
2022/10/01 03:24:15;;;;;;;4.50;3.03;;;10.70;1.00;;;;;;5035676;28;20184;-62
2022/10/01 03:26:44;;;;;;;4.50;3.60;;;10.60;99.90;;;;;;5016584;28;20235;-63
2022/10/01 03:29:12;;;;;;;4.00;3.27;;;10.60;1.00;;;;;;5005366;28;20233;-62
2022/10/01 03:31:38;;;;;;;4.27;3.07;;;10.60;1.00;;;;;;5018478;28;20200;-62
2022/10/01 03:34:06;;;;;;;3.40;3.10;;;10.60;99.90;;;;;;5016950;28;20204;-61
2022/10/01 03:36:33;;;;;;;4.27;3.67;;;10.70;1.00;;;;;;5019075;28;20549;-63
2022/10/01 03:39:01;;;;;;;5.63;3.17;;;10.60;1.00;;;;;;5036770;28;20215;-62
2022/10/01 03:41:27;;;;;;;4.00;2.90;;;10.60;1.00;;;;;;5037034;28;20789;-61
2022/10/01 03:43:54;;;;;;;6.87;3.37;;;10.60;99.90;;;;;;5019504;28;20279;-61
2022/10/01 03:46:26;;;;;;;1.27;0.70;;;10.50;1.00;;;;;;5037182;28;20253;-61
2022/10/01 03:48:56;;;;;;;4.60;3.53;;;10.50;99.90;;;;;;5025730;28;20200;-60
2022/10/01 03:51:23;;;;;;;5.53;3.30;;;10.50;1.00;;;;;;5007975;28;20294;-61
2022/10/01 03:53:50;;;;;;;4.07;3.30;;;10.40;99.90;;;;;;5022143;28;20207;-59
2022/10/01 03:56:17;;;;;;;4.03;3.03;;;10.50;1.00;;;;;;5032977;28;20216;-64
2022/10/01 03:58:44;;;;;;;4.80;3.37;;;10.50;99.90;;;;;;5020098;28;20291;-61
2022/10/01 04:01:11;;;;;;;3.43;3.00;;;10.60;1.00;;;;;;5016202;28;20226;-60
2022/10/01 04:03:38;;;;;;;3.30;3.00;;;10.60;99.90;;;;;;5050373;28;20201;-60
2022/10/01 04:06:06;;;;;;;4.07;3.30;;;10.70;1.00;;;;;;5052369;28;20287;-58
2022/10/01 04:08:36;;;;;;;2.83;2.63;;;10.70;99.90;;;;;;5017767;28;20197;-59
2022/10/01 04:11:04;;;;;;;4.03;3.40;;;10.80;1.00;;;;;;5035234;28;21770;-59
2022/10/01 04:13:33;;;;;;;3.30;3.00;;;10.70;99.90;;;;;;5036252;28;20302;-60
2022/10/01 04:16:04;;;;;;;3.63;2.60;;;10.80;1.00;;;;;;5035216;28;20225;-59
2022/10/01 04:18:31;;;;;;;5.67;2.90;;;10.70;1.00;;;;;;5035166;28;20242;-59
2022/10/01 04:20:58;;;;;;;4.27;3.10;;;10.70;99.90;;;;;;5036382;28;20210;-60
2022/10/01 04:23:25;;;;;;;3.37;2.93;;;10.70;99.90;;;;;;5032339;28;20294;-59
2022/10/01 04:25:52;;;;;;;3.90;2.80;;;10.60;99.90;;;;;;5034838;28;20301;-60
2022/10/01 04:28:19;;;;;;;0.50;0.50;;;10.60;1.00;;;;;;5036925;28;20814;-59
2022/10/01 04:30:46;;;;;;;0.40;0.40;;;10.60;1.00;;;;;;5048719;28;20204;-60
2022/10/01 04:33:15;;;;;;;0.40;0.40;;;10.60;1.00;;;;;;5031478;28;20219;-59
2022/10/01 04:35:43;;;;;;;0.30;0.30;;;10.60;99.90;;;;;;5015372;28;20219;-59
2022/10/01 04:38:15;;;;;;;0.40;0.40;;;10.60;1.00;;;;;;5015792;28;20293;-61
2022/10/01 04:40:42;;;;;;;0.50;0.50;;;10.60;99.90;;;;;;5015676;28;20217;-60
2022/10/01 04:43:11;;;;;;;0.40;0.40;;;10.60;99.90;;;;;;5032070;28;20187;-62
2022/10/01 04:45:38;;;;;;;0.40;0.40;;;10.50;99.90;;;;;;5034672;28;20210;-61
2022/10/01 04:48:05;;;;;;;0.40;0.40;;;10.50;99.90;;;;;;5026316;28;20204;-58
2022/10/01 04:50:32;;;;;;;0.40;0.40;;;10.60;1.00;;;;;;5049051;28;20303;-61
2022/10/01 04:52:59;;;;;;;0.50;0.50;;;10.60;99.90;;;;;;5037106;28;20192;-61
2022/10/01 04:55:26;;;;;;;0.40;0.40;;;10.70;99.90;;;;;;5049871;28;20196;-62
2022/10/01 04:57:53;;;;;;;0.50;0.50;;;10.70;1.00;;;;;;5036077;28;20247;-61
2022/10/01 05:00:25;;;;;;;0.40;0.40;;;10.90;99.90;;;;;;5037770;28;20200;-60
2022/10/01 05:02:53;;;;;;;0.40;0.40;;;10.90;99.90;;;;;;5025458;28;20223;-61
2022/10/01 05:05:22;;;;;;;0.50;0.50;;;11.00;45.50;;;;;;5020951;28;20291;-60
2022/10/01 05:07:49;;;;;;;0.40;0.40;;;10.90;99.90;;;;;;5038787;28;20227;-60
2022/10/01 05:10:19;;;;;;;0.50;0.50;;;11.00;1.00;;;;;;5021201;28;20556;-60
2022/10/01 05:12:47;;;;;;;0.40;0.40;;;11.20;99.90;;;;;;5037245;28;20705;-61
2022/10/01 05:15:16;;;;;;;0.40;0.40;;;11.10;99.90;;;;;;5054699;28;20338;-61
2022/10/01 05:17:43;;;;;;;0.50;0.50;;;11.00;99.90;;;;;;5028993;28;20215;-60
2022/10/01 05:20:16;;;;;;;0.40;0.40;;;11.00;99.90;;;;;;5033438;28;20199;-59
2022/10/01 05:22:44;;;;;;;0.50;0.50;;;11.20;99.90;;;;;;5039240;28;20191;-61
2022/10/01 05:25:11;;;;;;;0.50;0.50;;;11.20;99.90;;;;;;5022855;28;20192;-60
2022/10/01 05:27:39;;;;;;;0.50;0.50;;;11.20;99.90;;;;;;5017475;28;20236;-60
2022/10/01 05:30:09;;;;;;;0.40;0.40;;;11.40;1.00;;;;;;5019227;28;20195;-60
2022/10/01 05:32:36;;;;;;;0.40;0.40;;;11.40;99.90;;;;;;5025917;28;20189;-61
2022/10/01 05:35:07;;;;;;;0.40;0.40;;;11.40;99.90;;;;;;5018419;28;20192;-60
2022/10/01 05:37:34;;;;;;;0.40;0.40;;;11.40;99.90;;;;;;5003128;28;20304;-60
2022/10/01 05:40:02;;;;;;;0.40;0.40;;;11.50;99.90;;;;;;5017357;28;20193;-61
2022/10/01 05:42:29;;;;;;;0.30;0.30;;;11.50;99.90;;;;;;5023967;28;20205;-61
2022/10/01 05:44:56;;;;;;;0.40;0.40;;;11.50;99.90;;;;;;5017019;28;20283;-61
2022/10/01 05:47:23;;;;;;;0.47;0.47;;;11.50;99.90;;;;;;5035149;28;20200;-65
2022/10/01 05:49:50;;;;;;;0.30;0.30;;;11.50;99.90;;;;;;5019423;28;20201;-61
2022/10/01 05:52:17;;;;;;;0.30;0.30;;;11.40;1.00;;;;;;5034175;28;20193;-60
2022/10/01 05:54:44;;;;;;;0.40;0.40;;;11.40;1.00;;;;;;5018042;28;20691;-63
2022/10/01 05:57:11;;;;;;;0.40;0.40;;;11.40;56.10;;;;;;5019334;28;20224;-63
2022/10/01 05:59:39;;;;;;;0.50;0.50;;;11.30;99.90;;;;;;5019370;28;21822;-62
2022/10/01 06:02:08;;;;;;;0.40;0.40;;;11.30;1.00;;;;;;5029644;28;20374;-61
2022/10/01 06:04:36;;;;;;;0.40;0.40;;;11.40;25.40;;;;;;5016962;28;20189;-61
2022/10/01 06:07:07;;;;;;;0.50;0.50;;;11.40;1.00;;;;;;5013193;28;20288;-62
2022/10/01 06:09:34;;;;;;;0.40;0.40;;;11.40;99.90;;;;;;5016725;28;20215;-61
2022/10/01 06:12:01;;;;;;;0.40;0.40;;;11.40;99.90;;;;;;5016947;28;20626;-65
2022/10/01 06:14:28;;;;;;;0.40;0.40;;;11.40;1.00;;;;;;5015027;28;20200;-61
2022/10/01 06:16:55;;;;;;;0.40;0.40;;;11.30;1.00;;;;;;5001075;28;20764;-63
2022/10/01 06:19:22;;;;;;;0.40;0.40;;;11.30;59.60;;;;;;5016269;28;20215;-62
2022/10/01 06:21:52;;;;;;;0.40;0.40;;;11.30;99.90;;;;;;5033851;28;20196;-62
2022/10/01 06:24:19;;;;;;;0.50;0.50;;;11.20;99.90;;;;;;5017529;28;20279;-62
2022/10/01 06:26:47;;;;;;;0.40;0.40;;;11.30;1.00;;;;;;5028598;28;20246;-59
2022/10/01 06:29:14;;;;;;;0.40;0.40;;;11.30;1.00;;;;;;5019473;28;20695;-61
2022/10/01 06:31:41;;;;;;;0.40;0.40;;;11.30;1.00;;;;;;5039146;28;20290;-59
2022/10/01 06:34:08;;;;;;;0.40;0.40;;;11.30;1.00;;;;;;5017246;28;20203;-59
2022/10/01 06:36:35;;;;;;;0.40;0.40;;;11.30;1.00;;;;;;5022621;28;20196;-58
2022/10/01 06:39:02;;;;;;;0.40;0.40;;;11.30;1.00;;;;;;5023863;28;20194;-60
2022/10/01 06:41:29;;;;;;;0.50;0.50;;;11.30;1.00;;;;;;5055070;28;20196;-61
2022/10/01 06:43:56;;;;;;;0.40;0.40;;;11.30;1.00;;;;;;5019029;28;20562;-61
2022/10/01 06:46:23;;;;;;;0.40;0.40;;;11.30;1.00;;;;;;5051470;28;20203;-60
2022/10/01 06:48:50;;;;;;;0.40;0.40;;;11.40;1.00;;;;;;5039410;28;20184;-60
2022/10/01 06:52:47;;;;;;;0.43;0.43;;;11.50;99.90;;;;;;5025487;28;20924;-60
2022/10/01 06:54:04;;;;;;;0.40;0.40;;;11.50;99.90;;;;;;5025437;28;20881;-58
2022/10/01 06:56:31;;;;;;;0.40;0.40;;;11.50;28.70;;;;;;5011906;28;20275;-60
2022/10/01 06:58:58;;;;;;;0.40;0.40;;;11.60;1.00;;;;;;5040249;28;20192;-60
2022/10/01 07:01:25;;;;;;;0.40;0.40;;;11.60;1.00;;;;;;5037089;28;20823;-60
2022/10/01 07:03:53;;;;;;;0.40;0.40;;;11.60;1.00;;;;;;5038527;28;20193;-60
2022/10/01 07:06:19;;;;;;;0.40;0.40;;;11.70;99.90;;;;;;5040225;28;20188;-58
2022/10/01 07:08:50;;;;;;;0.33;0.33;;;11.80;89.60;;;;;;5026282;28;20184;-60
2022/10/01 07:11:17;;;;;;;0.40;0.40;;;11.90;99.90;;;;;;5007326;28;20610;-57
2022/10/01 07:13:44;;;;;;;0.40;0.40;;;12.10;1.00;;;;;;5036448;28;20212;-60
2022/10/01 07:16:11;;;;;;;0.40;0.40;;;12.00;1.00;;;;;;5052211;28;20199;-60
2022/10/01 07:18:38;;;;;;;0.40;0.40;;;12.10;1.00;;;;;;5019178;28;20246;-60
2022/10/01 07:21:05;;;;;;;0.40;0.40;;;12.00;99.90;;;;;;5035547;28;20611;-60
2022/10/01 07:23:32;;;;;;;0.40;0.40;;;12.00;99.90;;;;;;5036837;28;20267;-61
2022/10/01 07:26:02;;;;;;;0.30;0.30;;;11.90;99.90;;;;;;5036207;28;20255;-60
2022/10/01 07:28:30;;;;;;;0.40;0.40;;;12.00;1.00;;;;;;5037168;28;20265;-60
2022/10/01 07:31:03;;;;;;;0.43;0.43;;;12.00;99.90;;;;;;5036541;28;20753;-59
2022/10/01 07:33:31;;;;;;;0.30;0.30;;;12.10;99.90;;;;;;5019535;28;20200;-61
2022/10/01 07:36:04;;;;;;;0.40;0.40;;;12.10;1.00;;;;;;5032356;28;20204;-61
2022/10/01 07:38:34;;;;;;;0.40;0.40;;;12.10;1.00;;;;;;5034889;28;20289;-61
2022/10/01 07:41:02;;;;;;;0.40;0.40;;;12.00;99.90;;;;;;5033485;28;20188;-61
2022/10/01 07:43:30;;;;;;;0.40;0.40;;;12.10;99.90;;;;;;5037215;28;20211;-61
2022/10/01 07:45:58;;;;;;;0.40;0.40;;;12.20;1.00;;;;;;5036837;28;20199;-61
2022/10/01 07:48:26;;;;;;;0.40;0.40;;;12.20;1.00;;;;;;5041553;28;20294;-61
2022/10/01 07:50:54;;;;;;;0.40;0.40;;;12.20;1.00;;;;;;5037020;28;20227;-61
2022/10/01 07:53:22;;;;;;;0.40;0.40;;;12.20;1.00;;;;;;5019339;28;20315;-61
2022/10/01 07:55:49;;;;;;;0.40;0.40;;;12.30;1.00;;;;;;5019532;28;20222;-61
2022/10/01 07:58:17;;;;;;;0.40;0.40;;;12.30;1.00;;;;;;5038226;28;20204;-60
2022/10/01 08:00:44;;;;;;;0.40;0.40;;;12.40;1.00;;;;;;5037174;28;20205;-61
2022/10/01 08:03:11;;;;;;;0.30;0.30;;;12.40;1.00;;;;;;5035349;28;20203;-60
2022/10/01 08:05:42;;;;;;;0.40;0.40;;;12.40;1.00;;;;;;5035006;28;20258;-61
2022/10/01 08:08:09;;;;;;;0.40;0.40;;;12.40;1.00;;;;;;5026517;28;21535;-60
2022/10/01 08:10:37;;;;;;;0.40;0.40;;;12.50;1.00;;;;;;5037852;28;20292;-61
2022/10/01 08:13:13;;;;;;;0.40;0.40;;;12.50;1.00;;;;;;5037588;28;20336;-61
2022/10/01 08:15:45;;;;;;;0.40;0.40;;;12.60;1.00;;;;;;5025394;28;20196;-62
2022/10/01 08:18:13;;;;;;;0.40;0.40;;;12.80;99.90;;;;;;5041186;28;20215;-60
2022/10/01 08:20:40;;;;;;;0.40;0.40;;;12.80;99.90;;;;;;5040217;28;20769;-59
2022/10/01 08:23:13;;;;;;;0.40;0.40;;;12.70;99.90;;;;;;5040673;28;20316;-61
2022/10/01 08:25:41;;;;;;;0.30;0.30;;;12.60;1.00;;;;;;5036815;28;20234;-61
2022/10/01 08:28:10;;;;;;;0.40;0.40;;;12.70;1.00;;;;;;5023286;28;20191;-61
2022/10/01 08:30:41;;;;;;;0.40;0.40;;;12.60;1.00;;;;;;5039592;28;20209;-61
2022/10/01 08:33:13;;;;;;;0.40;0.40;;;12.80;99.90;;;;;;5004858;28;20227;-61
2022/10/01 08:35:42;;;;;;;0.40;0.40;;;12.80;99.90;;;;;;5042649;28;20196;-61
2022/10/01 08:38:10;;;;;;;0.40;0.40;;;12.90;99.90;;;;;;5039988;28;20293;-61
2022/10/01 08:40:46;;;;;;;0.40;0.40;;;13.00;99.90;;;;;;5023008;28;20245;-61
2022/10/01 08:43:30;;;;;;;0.40;0.40;;;13.10;99.90;;;;;;5027417;28;20220;-61
2022/10/01 08:46:21;;;;;;;0.40;0.40;;;13.10;99.90;;;;;;5040216;28;20185;-59
2022/10/01 08:49:01;;;;;;;0.30;0.30;;;13.40;20.00;;;;;;5054736;28;20283;-59
2022/10/01 08:51:34;;;;;;;0.37;0.37;;;14.20;1.00;;;;;;5039595;28;20206;-60
2022/10/01 08:54:36;;;;;;;0.37;0.37;;;17.20;1.00;;;;;;5039634;28;20195;-60
2022/10/01 08:57:08;;;;;;;0.40;0.40;;;16.50;1.00;;;;;;5039549;28;20190;-60
2022/10/01 08:59:43;;;;;;;0.30;0.30;;;15.80;1.00;;;;;;5039433;28;20223;-61
2022/10/01 09:02:31;;;;;;;0.30;0.30;;;16.20;1.00;;;;;;5040384;28;20242;-60
2022/10/01 09:05:02;;;;;;;0.38;0.38;;;16.50;1.00;;;;;;5039367;28;20219;-60
2022/10/01 09:07:54;;;;;;;0.30;0.30;;;16.80;1.00;;;;;;5039282;28;20211;-59
2022/10/01 09:11:00;;;;;;;0.30;0.30;;;16.80;1.00;;;;;;5023374;28;20203;-59
2022/10/01 09:13:44;;;;;;;0.30;0.30;;;17.80;1.00;;;;;;5022597;28;20330;-59
2022/10/01 09:16:18;;;;;;;0.30;0.30;;;22.30;1.00;;;;;;5023403;28;20191;-59
2022/10/01 09:19:07;;;;;;;0.30;0.30;;;20.50;1.00;;;;;;5037568;28;20273;-62
2022/10/01 09:22:03;;;;;;;0.32;0.32;;;18.20;1.00;;;;;;5022567;28;20196;-61
2022/10/01 09:24:49;;;;;;;0.30;0.30;;;17.60;1.00;;;;;;5036248;28;20207;-60
2022/10/01 09:27:23;;;;;;;0.30;0.30;;;16.60;1.00;;;;;;5023848;28;20234;-60
2022/10/01 09:29:57;;;;;;;0.30;0.30;;;15.80;1.00;;;;;;5038880;28;20750;-60
2022/10/01 09:32:30;;;;;;;0.30;0.30;;;16.00;1.00;;;;;;5041174;28;20202;-60
2022/10/01 09:35:04;;;;;;;0.30;0.30;;;16.20;1.00;;;;;;5038311;28;20198;-60
2022/10/01 09:37:55;;;;;;;0.40;0.40;;;15.60;1.00;;;;;;5041804;28;20957;-60
2022/10/01 09:40:55;;;;;;;0.30;0.30;;;15.30;99.90;;;;;;5054735;28;20596;-60
2022/10/01 09:43:29;;;;;;;0.30;0.30;;;15.60;17.90;;;;;;5013620;28;20441;-60
2022/10/01 09:45:57;;;;;;;0.30;0.30;;;15.20;82.70;;;;;;5042144;28;20210;-60
2022/10/01 09:48:48;;;;;;;0.40;0.40;;;15.20;99.90;;;;;;5052562;28;20210;-61
2022/10/01 09:51:21;;;;;;;0.30;0.30;;;15.40;49.70;;;;;;5038116;28;20678;-61
2022/10/01 09:54:19;;;;;;;0.30;0.30;;;16.50;8.00;;;;;;5038134;28;20275;-60
2022/10/01 09:57:15;;;;;;;0.30;0.30;;;19.90;1.00;;;;;;5005617;28;20259;-60
2022/10/01 09:59:49;;;;;;;0.30;0.30;;;18.60;1.00;;;;;;5019908;28;20249;-60
2022/10/01 10:02:30;;;;;;;0.30;0.30;;;17.20;1.00;;;;;;5038443;28;20192;-60
2022/10/01 10:05:06;;;;;;;0.30;0.30;;;16.50;1.00;;;;;;5035266;28;20746;-61
2022/10/01 10:07:34;;;;;;;0.30;0.30;;;16.80;1.00;;;;;;5036944;28;20260;-61
2022/10/01 10:10:34;;;;;;;0.30;0.30;;;17.00;1.00;;;;;;5037542;28;20207;-61
2022/10/01 10:13:09;;;;;;;0.30;0.30;;;16.80;1.00;;;;;;5016625;28;20219;-59
2022/10/01 10:15:57;;;;;;;0.30;0.30;;;16.50;1.00;;;;;;5037011;28;20325;-61
2022/10/01 10:18:35;;;;;;;0.30;0.30;;;16.50;1.00;;;;;;5038690;28;20232;-59
2022/10/01 10:21:09;;;;;;;0.30;0.30;;;16.30;1.00;;;;;;5028732;28;20196;-58
2022/10/01 10:23:49;;;;;;;0.30;0.30;;;16.20;1.00;;;;;;5036045;28;20207;-60
2022/10/01 10:26:27;;;;;;;4.15;2.85;;;16.20;1.00;;;;;;5020349;28;20273;-61
2022/10/01 10:28:57;;;;;;;6.05;2.25;;;16.60;1.00;;;;;;5020105;28;20257;-62
2022/10/01 10:31:27;;;;;;;6.32;3.25;;;16.80;1.00;;;;;;5020786;28;20231;-61
2022/10/01 10:34:16;;;;;;;5.47;2.75;;;16.90;1.00;;;;;;5036298;28;20226;-59
2022/10/01 10:36:45;;;;;;;5.65;3.28;;;16.90;1.00;;;;;;5037123;28;20206;-59
2022/10/01 10:39:28;;;;;;;3.92;3.40;;;16.40;1.00;;;;;;5038323;28;20261;-59
2022/10/01 10:41:57;;;;;;;8.13;4.13;;;16.40;1.00;;;;;;5036898;28;20199;-59
2022/10/01 10:44:29;;;;;;;10.02;4.00;;;16.40;1.00;;;;;;5046602;28;20219;-61
2022/10/01 10:46:59;;;;;;;8.52;4.03;;;16.40;1.00;;;;;;5038307;28;20188;-61
2022/10/01 10:49:30;;;;;;;4.95;3.50;;;16.50;1.00;;;;;;5037014;28;20666;-61
2022/10/01 10:51:59;;;;;;;4.93;3.53;;;16.40;1.00;;;;;;5039653;28;20200;-61
2022/10/01 10:54:38;;;;;;;5.13;3.75;;;16.40;1.00;;;;;;5022119;28;20540;-62
2022/10/01 10:57:26;;;;;;;5.32;3.13;;;16.30;1.00;;;;;;5040316;28;20203;-61
2022/10/01 11:00:18;;;;;;;5.18;2.80;;;16.10;3.80;;;;;;5037983;28;20676;-62
2022/10/01 11:03:03;;;;;;;6.78;3.42;;;16.20;1.00;;;;;;5050341;28;20232;-62
2022/10/01 11:05:31;;;;;;;3.55;2.65;;;16.50;1.00;;;;;;5037304;28;20192;-61
2022/10/01 11:08:02;;;;;;;6.68;2.97;;;16.80;1.00;;;;;;5038451;28;20196;-61
2022/10/01 11:10:53;;;;;;;4.43;2.90;;;18.70;1.00;;;;;;5037063;28;20208;-61
2022/10/01 11:13:26;;;;;;;3.92;2.67;;;19.90;1.00;;;;;;5039723;28;20219;-61
2022/10/01 11:16:23;;;;;;;3.65;2.45;;;20.50;1.00;;;;;;5021294;28;20253;-61
2022/10/01 11:19:08;;;;;;;2.30;1.60;;;20.30;1.00;;;;;;5037650;28;20597;-61
2022/10/01 11:21:52;;;;;;;4.82;2.28;;;19.20;1.00;;;;;;5038227;28;20282;-61
2022/10/01 11:24:36;;;;;;;3.10;2.17;;;19.60;1.00;;;;;;5020323;28;20610;-59
2022/10/01 11:27:35;;;;;;;3.40;2.30;;;18.70;1.00;;;;;;5022896;28;20307;-59
2022/10/01 11:30:19;;;;;;;3.88;2.30;;;18.40;1.00;;;;;;5020779;28;20204;-63
2022/10/01 11:32:49;;;;;;;4.38;2.20;;;18.20;1.00;;;;;;5008630;28;20197;-63
2022/10/01 11:35:40;;;;;;;8.10;2.65;;;17.90;1.00;;;;;;5022143;28;20188;-63
2022/10/01 11:38:26;;;;;;;3.47;1.48;;;19.00;1.00;;;;;;5021191;28;20321;-63
2022/10/01 11:41:25;;;;;;;2.35;1.20;;;20.70;1.00;;;;;;5026448;28;20250;-62
2022/10/01 11:44:17;;;;;;;4.00;1.45;;;20.50;1.00;;;;;;5036782;28;20200;-62
2022/10/01 11:47:00;;;;;;;2.97;1.20;;;20.20;1.00;;;;;;5020668;28;20469;-62
2022/10/01 11:49:49;;;;;;;2.42;1.60;;;20.30;1.00;;;;;;5038525;28;20207;-63
2022/10/01 11:52:16;;;;;;;2.80;1.77;;;21.10;1.00;;;;;;5038636;28;20192;-61
2022/10/01 12:01:05;;;;;;;4.88;2.22;;;20.50;1.00;;;;;;5042786;28;20274;-62
2022/10/01 12:03:44;;;;;;;2.92;1.55;;;20.80;1.00;;;;;;5039950;28;20287;-62
2022/10/01 12:06:13;;;;;;;1.65;1.50;;;20.60;1.00;;;;;;5023522;28;20287;-62
2022/10/01 12:08:47;;;;;;;3.65;1.40;;;20.00;1.00;;;;;;5040337;28;20744;-62
2022/10/01 12:11:22;;;;;;;6.70;1.73;;;19.30;1.00;;;;;;5043159;28;20286;-61
2022/10/01 12:14:00;;;;;;;4.28;1.80;;;18.30;1.00;;;;;;5044860;28;20222;-61
2022/10/01 12:16:50;;;;;;;3.67;2.15;;;17.50;1.00;;;;;;5042294;28;20249;-61
2022/10/01 12:19:32;;;;;;;6.05;2.42;;;17.00;1.00;;;;;;5040489;28;20663;-63
2022/10/01 12:22:23;;;;;;;3.65;2.58;;;16.90;1.00;;;;;;5037739;28;20215;-62
2022/10/01 12:24:51;;;;;;;4.70;2.80;;;16.60;1.00;;;;;;5023598;28;20192;-61
2022/10/01 12:27:40;;;;;;;4.45;2.85;;;16.40;61.30;;;;;;5039812;28;20306;-61
2022/10/01 12:30:13;;;;;;;4.57;3.10;;;16.10;99.90;;;;;;5041303;28;20195;-61
2022/10/01 12:33:12;;;;;;;2.63;2.40;;;16.00;99.90;;;;;;5023316;28;20211;-61
2022/10/01 12:35:57;;;;;;;3.28;2.33;;;15.80;70.70;;;;;;4950704;28;20238;-61
2022/10/01 12:38:27;;;;;;;4.17;2.50;;;15.30;1.00;;;;;;5054865;28;20207;-61
2022/10/01 12:41:18;;;;;;;3.93;1.87;;;15.30;10.00;;;;;;5042710;28;20202;-60
2022/10/01 12:44:12;;;;;;;4.50;2.10;;;15.10;60.40;;;;;;5025882;28;20282;-62
2022/10/01 12:47:11;;;;;;;5.00;1.83;;;14.80;26.60;;;;;;5044888;28;20211;-62
2022/10/01 12:49:48;;;;;;;3.13;1.90;;;14.80;36.40;;;;;;5018456;28;20689;-62
2022/10/01 12:52:26;;;;;;;2.67;2.33;;;14.80;1.00;;;;;;5042494;28;20195;-62
2022/10/01 12:54:56;;;;;;;5.87;2.93;;;14.40;1.10;;;;;;5031024;28;20199;-62
2022/10/01 12:57:56;;;;;;;5.50;3.50;;;14.10;15.40;;;;;;5029682;28;20191;-62
2022/10/01 13:00:26;;;;;;;9.53;5.43;;;14.10;25.10;;;;;;5039810;28;20741;-62
2022/10/01 13:03:02;;;;;;;3.67;2.27;;;14.10;57.30;;;;;;5030571;28;20231;-63
2022/10/01 13:05:35;;;;;;;5.37;3.63;;;14.00;99.90;;;;;;5024278;28;20204;-62
2022/10/01 13:08:17;;;;;;;5.37;3.57;;;14.20;79.90;;;;;;5022849;28;20273;-60
2022/10/01 13:11:31;;;;;;;9.60;6.50;;;14.30;70.10;;;;;;5040480;28;20206;-63
2022/10/01 13:13:59;;;;;;;3.53;2.77;;;14.30;24.20;;;;;;4961601;28;20289;-60
2022/10/01 13:16:44;;;;;;;5.63;2.47;;;14.80;1.00;;;;;;5008752;28;20231;-63
2022/10/01 13:19:34;;;;;;;4.70;2.80;;;15.10;1.00;;;;;;5022159;28;20234;-63
2022/10/01 13:22:40;;;;;;;5.63;4.20;;;15.10;1.00;;;;;;5023086;28;20274;-61
2022/10/01 13:25:23;;;;;;;4.93;3.83;;;15.20;1.00;;;;;;5027673;28;20561;-62
2022/10/01 13:27:58;;;;;;;4.67;3.10;;;15.50;1.00;;;;;;5039139;28;20183;-62
2022/10/01 13:30:31;;;;;;;8.55;4.53;;;15.60;1.00;;;;;;5031992;28;20202;-62
2022/10/01 13:32:59;;;;;;;5.38;4.05;;;15.50;1.00;;;;;;5022732;28;20282;-62
2022/10/01 13:35:38;;;;;;;7.38;4.32;;;15.70;1.00;;;;;;5021850;28;20292;-62
2022/10/01 13:38:29;;;;;;;5.57;3.33;;;15.60;14.30;;;;;;5023332;28;20256;-62